sensor_id;sensor_type;location;lat;lon;timestamp;temperature;humidity
25983;DHT22;13773;48.868;10.730;2022-10-16T00:01:36;13.80;99.90
25983;DHT22;13773;48.868;10.730;2022-10-16T00:04:02;13.80;99.90
25983;DHT22;13773;48.868;10.730;2022-10-16T00:06:29;13.80;99.90
25983;DHT22;13773;48.868;10.730;2022-10-16T00:08:55;13.70;99.90
25983;DHT22;13773;48.868;10.730;2022-10-16T00:11:27;13.70;99.90
25983;DHT22;13773;48.868;10.730;2022-10-16T00:13:56;13.70;99.90
25983;DHT22;13773;48.868;10.730;2022-10-16T00:16:23;13.70;99.90
25983;DHT22;13773;48.868;10.730;2022-10-16T00:18:48;13.70;99.90
25983;DHT22;13773;48.868;10.730;2022-10-16T00:21:18;13.80;99.90
25983;DHT22;13773;48.868;10.730;2022-10-16T00:23:44;13.80;99.90
25983;DHT22;13773;48.868;10.730;2022-10-16T00:26:12;13.80;99.90
25983;DHT22;13773;48.868;10.730;2022-10-16T00:28:38;13.80;99.90
25983;DHT22;13773;48.868;10.730;2022-10-16T00:31:06;13.70;99.90
25983;DHT22;13773;48.868;10.730;2022-10-16T00:33:32;13.80;99.90
25983;DHT22;13773;48.868;10.730;2022-10-16T00:35:59;13.80;99.90
25983;DHT22;13773;48.868;10.730;2022-10-16T00:38:25;13.80;99.90
25983;DHT22;13773;48.868;10.730;2022-10-16T00:40:51;13.80;99.90
25983;DHT22;13773;48.868;10.730;2022-10-16T00:43:42;13.80;99.90
25983;DHT22;13773;48.868;10.730;2022-10-16T00:48:42;13.80;99.90
25983;DHT22;13773;48.868;10.730;2022-10-16T00:51:08;13.80;99.90
25983;DHT22;13773;48.868;10.730;2022-10-16T00:53:34;13.80;99.90
25983;DHT22;13773;48.868;10.730;2022-10-16T00:56:01;13.70;99.90
25983;DHT22;13773;48.868;10.730;2022-10-16T00:58:27;13.70;99.90
25983;DHT22;13773;48.868;10.730;2022-10-16T01:00:53;13.70;99.90
25983;DHT22;13773;48.868;10.730;2022-10-16T01:03:30;13.70;99.90
25983;DHT22;13773;48.868;10.730;2022-10-16T01:14:26;13.70;99.90
25983;DHT22;13773;48.868;10.730;2022-10-16T01:17:04;13.70;99.90
25983;DHT22;13773;48.868;10.730;2022-10-16T01:22:00;13.80;99.90
25983;DHT22;13773;48.868;10.730;2022-10-16T01:24:40;13.80;99.90
25983;DHT22;13773;48.868;10.730;2022-10-16T01:27:28;13.80;99.90
25983;DHT22;13773;48.868;10.730;2022-10-16T01:32:40;13.80;99.90
25983;DHT22;13773;48.868;10.730;2022-10-16T01:35:13;13.80;99.90
25983;DHT22;13773;48.868;10.730;2022-10-16T01:38:08;13.80;99.90
25983;DHT22;13773;48.868;10.730;2022-10-16T01:40:39;13.70;99.90
25983;DHT22;13773;48.868;10.730;2022-10-16T01:43:11;13.80;99.90
25983;DHT22;13773;48.868;10.730;2022-10-16T01:45:38;13.80;99.90
25983;DHT22;13773;48.868;10.730;2022-10-16T01:48:05;13.70;99.90
25983;DHT22;13773;48.868;10.730;2022-10-16T01:50:35;13.70;99.90
25983;DHT22;13773;48.868;10.730;2022-10-16T01:53:03;13.70;99.90
25983;DHT22;13773;48.868;10.730;2022-10-16T01:55:37;13.70;99.90
25983;DHT22;13773;48.868;10.730;2022-10-16T01:58:06;13.60;99.90
25983;DHT22;13773;48.868;10.730;2022-10-16T02:00:33;13.60;99.90
25983;DHT22;13773;48.868;10.730;2022-10-16T02:03:01;13.60;99.90
25983;DHT22;13773;48.868;10.730;2022-10-16T02:05:36;13.60;99.90
25983;DHT22;13773;48.868;10.730;2022-10-16T02:08:04;13.60;99.90
25983;DHT22;13773;48.868;10.730;2022-10-16T02:10:30;13.60;99.90
25983;DHT22;13773;48.868;10.730;2022-10-16T02:13:04;13.40;99.90
25983;DHT22;13773;48.868;10.730;2022-10-16T02:15:31;13.40;99.90
25983;DHT22;13773;48.868;10.730;2022-10-16T02:17:56;13.30;99.90
25983;DHT22;13773;48.868;10.730;2022-10-16T02:20:26;13.20;99.90
25983;DHT22;13773;48.868;10.730;2022-10-16T02:22:53;13.10;99.90
25983;DHT22;13773;48.868;10.730;2022-10-16T02:25:30;13.00;99.90
25983;DHT22;13773;48.868;10.730;2022-10-16T02:28:03;13.00;99.90
25983;DHT22;13773;48.868;10.730;2022-10-16T02:30:48;13.00;99.90
25983;DHT22;13773;48.868;10.730;2022-10-16T02:33:16;12.90;99.90
25983;DHT22;13773;48.868;10.730;2022-10-16T02:35:45;12.80;99.90
25983;DHT22;13773;48.868;10.730;2022-10-16T02:38:12;12.80;99.90
25983;DHT22;13773;48.868;10.730;2022-10-16T02:40:40;12.80;99.90
25983;DHT22;13773;48.868;10.730;2022-10-16T02:43:06;12.70;99.90
25983;DHT22;13773;48.868;10.730;2022-10-16T02:45:32;12.70;99.90
25983;DHT22;13773;48.868;10.730;2022-10-16T02:47:58;12.60;99.90
25983;DHT22;13773;48.868;10.730;2022-10-16T02:50:24;12.60;99.90
25983;DHT22;13773;48.868;10.730;2022-10-16T02:52:50;12.60;99.90
25983;DHT22;13773;48.868;10.730;2022-10-16T02:55:16;12.60;99.90
25983;DHT22;13773;48.868;10.730;2022-10-16T02:57:42;12.50;99.90
25983;DHT22;13773;48.868;10.730;2022-10-16T03:00:09;12.60;99.90
25983;DHT22;13773;48.868;10.730;2022-10-16T03:02:36;12.50;99.90
25983;DHT22;13773;48.868;10.730;2022-10-16T03:05:02;12.60;99.90
25983;DHT22;13773;48.868;10.730;2022-10-16T03:07:28;12.60;99.90
25983;DHT22;13773;48.868;10.730;2022-10-16T03:09:54;12.60;99.90
25983;DHT22;13773;48.868;10.730;2022-10-16T03:12:21;12.60;99.90
25983;DHT22;13773;48.868;10.730;2022-10-16T03:14:47;12.60;99.90
25983;DHT22;13773;48.868;10.730;2022-10-16T03:17:12;12.60;99.90
25983;DHT22;13773;48.868;10.730;2022-10-16T03:19:39;12.60;99.90
25983;DHT22;13773;48.868;10.730;2022-10-16T03:22:04;12.70;99.90
25983;DHT22;13773;48.868;10.730;2022-10-16T03:24:30;12.70;99.90
25983;DHT22;13773;48.868;10.730;2022-10-16T03:26:56;12.70;99.90
25983;DHT22;13773;48.868;10.730;2022-10-16T03:29:22;12.80;99.90
25983;DHT22;13773;48.868;10.730;2022-10-16T03:31:48;12.80;99.90
25983;DHT22;13773;48.868;10.730;2022-10-16T03:34:15;12.80;99.90
25983;DHT22;13773;48.868;10.730;2022-10-16T03:36:41;12.80;99.90
25983;DHT22;13773;48.868;10.730;2022-10-16T03:39:06;12.70;99.90
25983;DHT22;13773;48.868;10.730;2022-10-16T03:41:32;12.70;99.90
25983;DHT22;13773;48.868;10.730;2022-10-16T03:43:58;12.80;99.90
25983;DHT22;13773;48.868;10.730;2022-10-16T03:46:23;12.80;99.90
25983;DHT22;13773;48.868;10.730;2022-10-16T03:48:49;12.80;99.90
25983;DHT22;13773;48.868;10.730;2022-10-16T03:51:15;12.80;99.90
25983;DHT22;13773;48.868;10.730;2022-10-16T03:53:40;12.90;99.90
25983;DHT22;13773;48.868;10.730;2022-10-16T03:56:06;12.80;99.90
25983;DHT22;13773;48.868;10.730;2022-10-16T03:58:32;12.80;99.90
25983;DHT22;13773;48.868;10.730;2022-10-16T04:00:58;12.90;99.90
25983;DHT22;13773;48.868;10.730;2022-10-16T04:03:24;15.10;99.90
25983;DHT22;13773;48.868;10.730;2022-10-16T04:05:50;13.10;99.90
25983;DHT22;13773;48.868;10.730;2022-10-16T04:08:16;13.20;99.90
25983;DHT22;13773;48.868;10.730;2022-10-16T04:10:44;13.30;99.90
25983;DHT22;13773;48.868;10.730;2022-10-16T04:13:11;13.30;99.90
25983;DHT22;13773;48.868;10.730;2022-10-16T04:15:37;13.20;99.90
25983;DHT22;13773;48.868;10.730;2022-10-16T04:18:03;13.30;99.90
25983;DHT22;13773;48.868;10.730;2022-10-16T04:20:29;13.30;99.90
25983;DHT22;13773;48.868;10.730;2022-10-16T04:22:55;13.30;99.90
25983;DHT22;13773;48.868;10.730;2022-10-16T04:25:21;13.30;99.90
25983;DHT22;13773;48.868;10.730;2022-10-16T04:27:47;13.20;99.90
25983;DHT22;13773;48.868;10.730;2022-10-16T04:30:13;13.10;99.90
25983;DHT22;13773;48.868;10.730;2022-10-16T04:32:39;13.10;99.90
25983;DHT22;13773;48.868;10.730;2022-10-16T04:35:06;13.10;99.90
25983;DHT22;13773;48.868;10.730;2022-10-16T04:37:32;13.00;99.90
25983;DHT22;13773;48.868;10.730;2022-10-16T04:39:58;12.90;99.90
25983;DHT22;13773;48.868;10.730;2022-10-16T04:42:24;14.40;99.90
25983;DHT22;13773;48.868;10.730;2022-10-16T04:44:49;12.90;99.90
25983;DHT22;13773;48.868;10.730;2022-10-16T04:47:15;13.00;99.90
25983;DHT22;13773;48.868;10.730;2022-10-16T04:49:41;12.90;99.90
25983;DHT22;13773;48.868;10.730;2022-10-16T04:52:06;12.90;99.90
25983;DHT22;13773;48.868;10.730;2022-10-16T04:54:34;12.90;99.90
25983;DHT22;13773;48.868;10.730;2022-10-16T04:57:00;12.80;99.90
25983;DHT22;13773;48.868;10.730;2022-10-16T04:59:25;12.80;99.90
25983;DHT22;13773;48.868;10.730;2022-10-16T05:01:51;12.70;99.90
25983;DHT22;13773;48.868;10.730;2022-10-16T05:04:17;12.70;99.90
25983;DHT22;13773;48.868;10.730;2022-10-16T05:06:43;12.60;99.90
25983;DHT22;13773;48.868;10.730;2022-10-16T05:09:09;12.50;99.90
25983;DHT22;13773;48.868;10.730;2022-10-16T05:11:35;12.50;99.90
25983;DHT22;13773;48.868;10.730;2022-10-16T05:14:01;12.40;99.90
25983;DHT22;13773;48.868;10.730;2022-10-16T05:16:27;12.40;99.90
25983;DHT22;13773;48.868;10.730;2022-10-16T05:18:53;12.40;99.90
25983;DHT22;13773;48.868;10.730;2022-10-16T05:21:20;12.30;99.90
25983;DHT22;13773;48.868;10.730;2022-10-16T05:23:46;12.30;99.90
25983;DHT22;13773;48.868;10.730;2022-10-16T05:26:11;12.30;99.90
25983;DHT22;13773;48.868;10.730;2022-10-16T05:28:37;12.20;99.90
25983;DHT22;13773;48.868;10.730;2022-10-16T05:31:07;12.20;99.90
25983;DHT22;13773;48.868;10.730;2022-10-16T05:33:33;12.20;99.90
25983;DHT22;13773;48.868;10.730;2022-10-16T05:36:03;12.20;99.90
25983;DHT22;13773;48.868;10.730;2022-10-16T05:38:30;12.30;99.90
25983;DHT22;13773;48.868;10.730;2022-10-16T05:40:55;12.20;99.90
25983;DHT22;13773;48.868;10.730;2022-10-16T05:43:22;12.20;99.90
25983;DHT22;13773;48.868;10.730;2022-10-16T05:45:59;12.30;99.90
25983;DHT22;13773;48.868;10.730;2022-10-16T05:48:25;12.30;99.90
25983;DHT22;13773;48.868;10.730;2022-10-16T05:51:03;12.30;99.90
25983;DHT22;13773;48.868;10.730;2022-10-16T05:53:31;12.30;99.90
25983;DHT22;13773;48.868;10.730;2022-10-16T05:55:57;12.30;99.90
25983;DHT22;13773;48.868;10.730;2022-10-16T05:58:24;12.30;99.90
25983;DHT22;13773;48.868;10.730;2022-10-16T06:00:58;12.20;99.90
25983;DHT22;13773;48.868;10.730;2022-10-16T06:03:25;12.20;99.90
25983;DHT22;13773;48.868;10.730;2022-10-16T06:05:51;12.10;99.90
25983;DHT22;13773;48.868;10.730;2022-10-16T06:08:18;12.10;99.90
25983;DHT22;13773;48.868;10.730;2022-10-16T06:10:44;12.10;99.90
25983;DHT22;13773;48.868;10.730;2022-10-16T06:13:11;12.10;99.90
25983;DHT22;13773;48.868;10.730;2022-10-16T06:15:38;12.10;99.90
25983;DHT22;13773;48.868;10.730;2022-10-16T06:18:05;12.10;99.90
25983;DHT22;13773;48.868;10.730;2022-10-16T06:20:31;12.10;99.90
25983;DHT22;13773;48.868;10.730;2022-10-16T06:22:57;12.20;99.90
25983;DHT22;13773;48.868;10.730;2022-10-16T06:25:23;12.30;99.90
25983;DHT22;13773;48.868;10.730;2022-10-16T06:27:49;12.40;99.90
25983;DHT22;13773;48.868;10.730;2022-10-16T06:30:15;12.50;99.90
25983;DHT22;13773;48.868;10.730;2022-10-16T06:32:42;12.60;99.90
25983;DHT22;13773;48.868;10.730;2022-10-16T06:35:08;12.70;99.90
25983;DHT22;13773;48.868;10.730;2022-10-16T06:37:34;12.80;99.90
25983;DHT22;13773;48.868;10.730;2022-10-16T06:39:59;13.00;99.90
25983;DHT22;13773;48.868;10.730;2022-10-16T06:42:25;13.10;99.90
25983;DHT22;13773;48.868;10.730;2022-10-16T06:44:51;13.30;99.90
25983;DHT22;13773;48.868;10.730;2022-10-16T06:47:17;13.40;99.90
25983;DHT22;13773;48.868;10.730;2022-10-16T06:49:43;13.50;99.90
25983;DHT22;13773;48.868;10.730;2022-10-16T06:52:10;13.60;99.90
25983;DHT22;13773;48.868;10.730;2022-10-16T06:54:35;13.60;99.90
25983;DHT22;13773;48.868;10.730;2022-10-16T06:57:01;13.70;99.90
25983;DHT22;13773;48.868;10.730;2022-10-16T06:59:27;13.70;99.90
25983;DHT22;13773;48.868;10.730;2022-10-16T07:01:53;13.80;99.90
25983;DHT22;13773;48.868;10.730;2022-10-16T07:04:18;13.80;99.90
25983;DHT22;13773;48.868;10.730;2022-10-16T07:06:44;13.90;99.90
25983;DHT22;13773;48.868;10.730;2022-10-16T07:09:10;14.00;99.90
25983;DHT22;13773;48.868;10.730;2022-10-16T07:11:38;14.10;99.90
25983;DHT22;13773;48.868;10.730;2022-10-16T07:14:04;14.10;99.90
25983;DHT22;13773;48.868;10.730;2022-10-16T07:16:32;14.20;99.90
25983;DHT22;13773;48.868;10.730;2022-10-16T07:19:00;14.20;99.90
25983;DHT22;13773;48.868;10.730;2022-10-16T07:21:28;14.30;99.90
25983;DHT22;13773;48.868;10.730;2022-10-16T07:23:59;14.40;99.90
25983;DHT22;13773;48.868;10.730;2022-10-16T07:26:26;14.50;99.90
25983;DHT22;13773;48.868;10.730;2022-10-16T07:28:52;14.60;99.90
25983;DHT22;13773;48.868;10.730;2022-10-16T07:31:19;14.60;99.90
25983;DHT22;13773;48.868;10.730;2022-10-16T07:33:46;14.80;99.90
25983;DHT22;13773;48.868;10.730;2022-10-16T07:36:15;14.80;99.90
25983;DHT22;13773;48.868;10.730;2022-10-16T07:38:41;14.90;99.90
25983;DHT22;13773;48.868;10.730;2022-10-16T07:41:10;14.80;99.90
25983;DHT22;13773;48.868;10.730;2022-10-16T07:43:36;15.00;99.90
25983;DHT22;13773;48.868;10.730;2022-10-16T07:46:02;15.10;99.90
25983;DHT22;13773;48.868;10.730;2022-10-16T07:48:31;15.30;99.90
25983;DHT22;13773;48.868;10.730;2022-10-16T07:51:00;14.90;99.90
25983;DHT22;13773;48.868;10.730;2022-10-16T07:53:27;14.70;99.90
25983;DHT22;13773;48.868;10.730;2022-10-16T07:55:57;14.60;99.90
25983;DHT22;13773;48.868;10.730;2022-10-16T07:58:23;14.70;99.90
25983;DHT22;13773;48.868;10.730;2022-10-16T08:00:49;15.00;99.90
25983;DHT22;13773;48.868;10.730;2022-10-16T08:03:15;15.30;99.90
25983;DHT22;13773;48.868;10.730;2022-10-16T08:05:41;15.50;99.90
25983;DHT22;13773;48.868;10.730;2022-10-16T08:08:06;15.70;99.90
25983;DHT22;13773;48.868;10.730;2022-10-16T08:10:32;15.80;99.90
25983;DHT22;13773;48.868;10.730;2022-10-16T08:12:58;16.00;99.90
25983;DHT22;13773;48.868;10.730;2022-10-16T08:15:24;16.10;99.90
25983;DHT22;13773;48.868;10.730;2022-10-16T08:18:16;16.30;99.90
25983;DHT22;13773;48.868;10.730;2022-10-16T08:20:42;16.50;99.90
25983;DHT22;13773;48.868;10.730;2022-10-16T08:23:11;16.30;99.90
25983;DHT22;13773;48.868;10.730;2022-10-16T08:25:37;16.50;99.90
25983;DHT22;13773;48.868;10.730;2022-10-16T08:28:08;16.60;99.90
25983;DHT22;13773;48.868;10.730;2022-10-16T08:30:34;16.60;99.90
25983;DHT22;13773;48.868;10.730;2022-10-16T08:33:00;16.70;99.90
25983;DHT22;13773;48.868;10.730;2022-10-16T08:35:27;17.00;99.90
25983;DHT22;13773;48.868;10.730;2022-10-16T08:37:52;17.00;99.90
25983;DHT22;13773;48.868;10.730;2022-10-16T08:40:19;17.10;99.90
25983;DHT22;13773;48.868;10.730;2022-10-16T08:48:51;17.20;99.90
25983;DHT22;13773;48.868;10.730;2022-10-16T08:51:24;17.20;99.90
25983;DHT22;13773;48.868;10.730;2022-10-16T08:53:54;17.30;99.90
25983;DHT22;13773;48.868;10.730;2022-10-16T08:56:21;17.20;99.90
25983;DHT22;13773;48.868;10.730;2022-10-16T08:58:47;17.20;99.90
25983;DHT22;13773;48.868;10.730;2022-10-16T09:01:16;17.30;99.90
25983;DHT22;13773;48.868;10.730;2022-10-16T09:06:46;17.50;99.90
25983;DHT22;13773;48.868;10.730;2022-10-16T09:12:30;17.60;99.90
25983;DHT22;13773;48.868;10.730;2022-10-16T09:15:34;17.80;99.90
25983;DHT22;13773;48.868;10.730;2022-10-16T09:18:04;18.00;99.90
25983;DHT22;13773;48.868;10.730;2022-10-16T09:20:49;18.10;99.90
25983;DHT22;13773;48.868;10.730;2022-10-16T09:25:46;18.10;99.90
25983;DHT22;13773;48.868;10.730;2022-10-16T09:28:13;18.20;99.90
25983;DHT22;13773;48.868;10.730;2022-10-16T09:30:39;18.30;99.90
25983;DHT22;13773;48.868;10.730;2022-10-16T09:33:06;18.40;99.90
25983;DHT22;13773;48.868;10.730;2022-10-16T09:35:45;18.30;99.90
25983;DHT22;13773;48.868;10.730;2022-10-16T09:38:32;18.50;99.90
25983;DHT22;13773;48.868;10.730;2022-10-16T09:41:00;18.60;99.90
25983;DHT22;13773;48.868;10.730;2022-10-16T09:48:51;18.60;99.90
25983;DHT22;13773;48.868;10.730;2022-10-16T09:51:26;18.60;99.90
25983;DHT22;13773;48.868;10.730;2022-10-16T09:54:01;18.70;99.90
25983;DHT22;13773;48.868;10.730;2022-10-16T09:56:31;18.70;99.90
25983;DHT22;13773;48.868;10.730;2022-10-16T09:59:21;18.60;99.90
25983;DHT22;13773;48.868;10.730;2022-10-16T10:01:54;18.50;99.90
25983;DHT22;13773;48.868;10.730;2022-10-16T10:04:22;18.60;99.90
25983;DHT22;13773;48.868;10.730;2022-10-16T10:06:49;18.80;99.90
25983;DHT22;13773;48.868;10.730;2022-10-16T10:11:56;19.00;99.90
25983;DHT22;13773;48.868;10.730;2022-10-16T10:14:52;19.00;99.90
25983;DHT22;13773;48.868;10.730;2022-10-16T10:17:20;19.00;99.90
25983;DHT22;13773;48.868;10.730;2022-10-16T10:22:42;19.10;99.90
25983;DHT22;13773;48.868;10.730;2022-10-16T10:30:32;19.30;99.90
25983;DHT22;13773;48.868;10.730;2022-10-16T10:38:51;19.20;99.90
25983;DHT22;13773;48.868;10.730;2022-10-16T10:41:33;19.40;99.90
25983;DHT22;13773;48.868;10.730;2022-10-16T10:52:38;20.10;99.90
25983;DHT22;13773;48.868;10.730;2022-10-16T10:58:08;20.00;99.90
25983;DHT22;13773;48.868;10.730;2022-10-16T11:06:29;20.40;99.90
25983;DHT22;13773;48.868;10.730;2022-10-16T11:09:12;20.70;99.90
25983;DHT22;13773;48.868;10.730;2022-10-16T11:17:06;20.90;99.90
25983;DHT22;13773;48.868;10.730;2022-10-16T11:19:56;20.70;99.90
25983;DHT22;13773;48.868;10.730;2022-10-16T11:22:37;20.60;99.90
25983;DHT22;13773;48.868;10.730;2022-10-16T11:25:20;20.60;99.90
25983;DHT22;13773;48.868;10.730;2022-10-16T11:31:03;20.90;99.90
25983;DHT22;13773;48.868;10.730;2022-10-16T11:33:41;21.00;99.90
25983;DHT22;13773;48.868;10.730;2022-10-16T11:36:25;21.10;99.90
25983;DHT22;13773;48.868;10.730;2022-10-16T11:41:39;20.90;99.90
25983;DHT22;13773;48.868;10.730;2022-10-16T11:49:53;20.30;99.90
25983;DHT22;13773;48.868;10.730;2022-10-16T11:52:41;20.20;99.90
25983;DHT22;13773;48.868;10.730;2022-10-16T11:55:31;20.00;99.90
25983;DHT22;13773;48.868;10.730;2022-10-16T11:58:16;20.00;99.90
25983;DHT22;13773;48.868;10.730;2022-10-16T12:04:05;20.20;99.90
25983;DHT22;13773;48.868;10.730;2022-10-16T12:06:40;20.30;99.90
25983;DHT22;13773;48.868;10.730;2022-10-16T12:09:28;20.30;99.90
25983;DHT22;13773;48.868;10.730;2022-10-16T12:11:55;20.30;99.90
25983;DHT22;13773;48.868;10.730;2022-10-16T12:17:27;20.50;99.90
25983;DHT22;13773;48.868;10.730;2022-10-16T12:22:57;20.60;99.90
25983;DHT22;13773;48.868;10.730;2022-10-16T12:25:28;20.60;99.90
25983;DHT22;13773;48.868;10.730;2022-10-16T12:30:29;20.60;99.90
25983;DHT22;13773;48.868;10.730;2022-10-16T12:32:57;20.60;99.90
25983;DHT22;13773;48.868;10.730;2022-10-16T12:35:29;20.60;99.90
25983;DHT22;13773;48.868;10.730;2022-10-16T12:38:06;20.60;99.90
25983;DHT22;13773;48.868;10.730;2022-10-16T12:40:34;20.70;99.90
25983;DHT22;13773;48.868;10.730;2022-10-16T12:43:26;20.80;99.90
25983;DHT22;13773;48.868;10.730;2022-10-16T12:46:05;20.90;99.90
25983;DHT22;13773;48.868;10.730;2022-10-16T12:48:31;20.90;99.90
25983;DHT22;13773;48.868;10.730;2022-10-16T12:50:57;20.90;99.90
25983;DHT22;13773;48.868;10.730;2022-10-16T12:53:34;21.00;99.90
25983;DHT22;13773;48.868;10.730;2022-10-16T12:56:25;21.10;99.90
25983;DHT22;13773;48.868;10.730;2022-10-16T12:59:12;20.80;99.90
25983;DHT22;13773;48.868;10.730;2022-10-16T13:05:15;20.90;99.90
25983;DHT22;13773;48.868;10.730;2022-10-16T13:13:18;21.50;99.90
25983;DHT22;13773;48.868;10.730;2022-10-16T13:21:39;21.60;99.90
25983;DHT22;13773;48.868;10.730;2022-10-16T13:26:49;22.10;99.90
25983;DHT22;13773;48.868;10.730;2022-10-16T13:29:18;22.30;99.90
25983;DHT22;13773;48.868;10.730;2022-10-16T13:31:45;22.40;99.90
25983;DHT22;13773;48.868;10.730;2022-10-16T13:34:17;22.50;99.90
25983;DHT22;13773;48.868;10.730;2022-10-16T13:36:47;22.60;99.90
25983;DHT22;13773;48.868;10.730;2022-10-16T13:39:23;22.30;99.90
25983;DHT22;13773;48.868;10.730;2022-10-16T13:42:23;22.30;99.90
25983;DHT22;13773;48.868;10.730;2022-10-16T13:44:52;22.40;99.90
25983;DHT22;13773;48.868;10.730;2022-10-16T13:47:21;22.50;99.90
25983;DHT22;13773;48.868;10.730;2022-10-16T13:50:03;22.50;99.90
25983;DHT22;13773;48.868;10.730;2022-10-16T13:52:30;22.20;99.90
25983;DHT22;13773;48.868;10.730;2022-10-16T13:54:56;21.90;99.90
25983;DHT22;13773;48.868;10.730;2022-10-16T13:57:23;21.70;99.90
25983;DHT22;13773;48.868;10.730;2022-10-16T13:59:49;21.40;99.90
25983;DHT22;13773;48.868;10.730;2022-10-16T14:04:51;20.90;99.90
25983;DHT22;13773;48.868;10.730;2022-10-16T14:07:29;20.50;99.90
25983;DHT22;13773;48.868;10.730;2022-10-16T14:10:01;20.20;99.90
25983;DHT22;13773;48.868;10.730;2022-10-16T14:12:27;20.20;99.90
25983;DHT22;13773;48.868;10.730;2022-10-16T14:14:54;20.10;99.90
25983;DHT22;13773;48.868;10.730;2022-10-16T14:17:31;20.30;99.90
25983;DHT22;13773;48.868;10.730;2022-10-16T14:20:02;20.40;99.90
25983;DHT22;13773;48.868;10.730;2022-10-16T14:24:57;20.60;99.90
25983;DHT22;13773;48.868;10.730;2022-10-16T14:30:16;20.90;99.90
25983;DHT22;13773;48.868;10.730;2022-10-16T14:32:56;21.00;99.90
25983;DHT22;13773;48.868;10.730;2022-10-16T14:38:19;21.10;99.90
25983;DHT22;13773;48.868;10.730;2022-10-16T14:40:49;20.90;99.90
25983;DHT22;13773;48.868;10.730;2022-10-16T14:43:21;20.60;99.90
25983;DHT22;13773;48.868;10.730;2022-10-16T14:45:52;20.10;99.90
25983;DHT22;13773;48.868;10.730;2022-10-16T14:48:19;19.60;99.90
25983;DHT22;13773;48.868;10.730;2022-10-16T14:50:46;19.60;99.90
25983;DHT22;13773;48.868;10.730;2022-10-16T14:53:12;19.70;99.90
25983;DHT22;13773;48.868;10.730;2022-10-16T14:55:40;19.90;99.90
25983;DHT22;13773;48.868;10.730;2022-10-16T14:58:20;20.10;99.90
25983;DHT22;13773;48.868;10.730;2022-10-16T15:00:46;20.60;99.90
25983;DHT22;13773;48.868;10.730;2022-10-16T15:03:13;20.80;99.90
25983;DHT22;13773;48.868;10.730;2022-10-16T15:05:38;20.80;99.90
25983;DHT22;13773;48.868;10.730;2022-10-16T15:08:04;20.80;99.90
25983;DHT22;13773;48.868;10.730;2022-10-16T15:10:31;20.80;99.90
25983;DHT22;13773;48.868;10.730;2022-10-16T15:12:58;20.70;99.90
25983;DHT22;13773;48.868;10.730;2022-10-16T15:17:59;20.50;99.90
25983;DHT22;13773;48.868;10.730;2022-10-16T15:20:35;20.40;99.90
25983;DHT22;13773;48.868;10.730;2022-10-16T15:23:02;20.40;99.90
25983;DHT22;13773;48.868;10.730;2022-10-16T15:25:38;20.10;99.90
25983;DHT22;13773;48.868;10.730;2022-10-16T15:28:08;19.90;99.90
25983;DHT22;13773;48.868;10.730;2022-10-16T15:30:35;19.60;99.90
25983;DHT22;13773;48.868;10.730;2022-10-16T15:33:01;19.30;99.90
25983;DHT22;13773;48.868;10.730;2022-10-16T15:35:27;19.10;99.90
25983;DHT22;13773;48.868;10.730;2022-10-16T15:37:53;18.70;99.90
25983;DHT22;13773;48.868;10.730;2022-10-16T15:40:19;18.50;99.90
25983;DHT22;13773;48.868;10.730;2022-10-16T15:42:45;18.20;99.90
25983;DHT22;13773;48.868;10.730;2022-10-16T15:45:12;18.00;99.90
25983;DHT22;13773;48.868;10.730;2022-10-16T15:47:40;17.80;99.90
25983;DHT22;13773;48.868;10.730;2022-10-16T15:50:06;17.60;99.90
25983;DHT22;13773;48.868;10.730;2022-10-16T15:52:32;17.40;99.90
25983;DHT22;13773;48.868;10.730;2022-10-16T15:54:58;17.30;99.90
25983;DHT22;13773;48.868;10.730;2022-10-16T15:57:24;17.20;99.90
25983;DHT22;13773;48.868;10.730;2022-10-16T15:59:50;17.00;99.90
25983;DHT22;13773;48.868;10.730;2022-10-16T16:02:17;16.90;99.90
25983;DHT22;13773;48.868;10.730;2022-10-16T16:04:42;16.80;99.90
25983;DHT22;13773;48.868;10.730;2022-10-16T16:07:08;16.90;99.90
25983;DHT22;13773;48.868;10.730;2022-10-16T16:09:34;16.80;99.90
25983;DHT22;13773;48.868;10.730;2022-10-16T16:12:00;16.80;99.90
25983;DHT22;13773;48.868;10.730;2022-10-16T16:14:27;16.70;99.90
25983;DHT22;13773;48.868;10.730;2022-10-16T16:16:56;16.70;99.90
25983;DHT22;13773;48.868;10.730;2022-10-16T16:19:22;16.70;99.90
25983;DHT22;13773;48.868;10.730;2022-10-16T16:21:48;16.70;99.90
25983;DHT22;13773;48.868;10.730;2022-10-16T16:24:14;16.60;99.90
25983;DHT22;13773;48.868;10.730;2022-10-16T16:26:40;16.70;99.90
25983;DHT22;13773;48.868;10.730;2022-10-16T16:29:11;16.60;99.90
25983;DHT22;13773;48.868;10.730;2022-10-16T16:31:38;16.80;99.90
25983;DHT22;13773;48.868;10.730;2022-10-16T16:34:04;16.70;99.90
25983;DHT22;13773;48.868;10.730;2022-10-16T16:36:31;16.70;99.90
25983;DHT22;13773;48.868;10.730;2022-10-16T16:38:57;16.90;99.90
25983;DHT22;13773;48.868;10.730;2022-10-16T16:41:28;16.80;99.90
25983;DHT22;13773;48.868;10.730;2022-10-16T16:43:55;17.00;99.90
25983;DHT22;13773;48.868;10.730;2022-10-16T16:46:26;17.00;99.90
25983;DHT22;13773;48.868;10.730;2022-10-16T16:48:51;16.90;99.90
25983;DHT22;13773;48.868;10.730;2022-10-16T16:51:20;16.80;99.90
25983;DHT22;13773;48.868;10.730;2022-10-16T16:53:49;16.80;99.90
25983;DHT22;13773;48.868;10.730;2022-10-16T16:56:15;16.70;99.90
25983;DHT22;13773;48.868;10.730;2022-10-16T16:58:45;16.70;99.90
25983;DHT22;13773;48.868;10.730;2022-10-16T17:01:10;16.60;99.90
25983;DHT22;13773;48.868;10.730;2022-10-16T17:03:36;16.90;99.90
25983;DHT22;13773;48.868;10.730;2022-10-16T17:06:08;16.80;99.90
25983;DHT22;13773;48.868;10.730;2022-10-16T17:08:35;16.90;99.90
25983;DHT22;13773;48.868;10.730;2022-10-16T17:11:01;16.80;99.90
25983;DHT22;13773;48.868;10.730;2022-10-16T17:13:29;16.70;99.90
25983;DHT22;13773;48.868;10.730;2022-10-16T17:15:55;16.70;99.90
25983;DHT22;13773;48.868;10.730;2022-10-16T17:18:23;16.90;99.90
25983;DHT22;13773;48.868;10.730;2022-10-16T17:20:49;17.10;99.90
25983;DHT22;13773;48.868;10.730;2022-10-16T17:23:17;16.90;99.90
25983;DHT22;13773;48.868;10.730;2022-10-16T17:25:43;16.70;99.90
25983;DHT22;13773;48.868;10.730;2022-10-16T17:28:10;16.60;99.90
25983;DHT22;13773;48.868;10.730;2022-10-16T17:30:39;16.50;99.90
25983;DHT22;13773;48.868;10.730;2022-10-16T17:33:06;16.40;99.90
25983;DHT22;13773;48.868;10.730;2022-10-16T17:35:45;16.40;99.90
25983;DHT22;13773;48.868;10.730;2022-10-16T17:38:13;16.40;99.90